»·PEaware :: N900PJ KLGB-KBFL

N900PJ :: KLGB-KBFL

FLIGHT INFORMATION

Flight Status: Arrived
Operator: Privately registered:
United States
More flights under this callsign
Pilot: Oliver L. (19934)
Aircraft: PILATUS PC-12 EAGLE
(PC12)
More flights by this aircraft type
Origin: KLGB Long Beach
United States
Destination: KBFL Meadows
United States
More flights between these airports :: More routes between these airports
Route: + SLI V459 LHS FASTO2
File this flight plan on PilotEdge
Remarks:
Altitude:
(Current/Filed)
16,000ft
Speed:
(Current/Filed)
220kts
Departed: 19-Sep-18 02:30 PM
Arrived: 19-Sep-18 03:10 PM
Distance/Time
Traveled:
107nm/0:40
Distance/Time
To Go:
Arrived

Flight Plot

Page will automatically refresh every two minutes.

Flight plan parsing failed; only flown route is shown


Map Options




Map Legend


Flown Route
Filed Route
Departure Airport
Arrival Airport
Navaid (VOR, NDB)
Fix

Horizontal Profiles

Position Reports

Time Latitude Longitude Heading Altitude Ground
Speed
19-Sep-18 14:13 33.812480 -118.152679 207 64ft 0kts
19-Sep-18 14:14 33.812480 -118.152679 207 64ft 0kts
19-Sep-18 14:15 33.812480 -118.152679 207 64ft 0kts
19-Sep-18 14:16 33.812480 -118.152679 207 64ft 0kts
19-Sep-18 14:17 33.812480 -118.152679 207 64ft 0kts
19-Sep-18 14:18 33.812480 -118.152679 207 64ft 0kts
19-Sep-18 14:19 33.812480 -118.152679 207 64ft 0kts
19-Sep-18 14:20 33.812480 -118.152679 207 64ft 0kts
19-Sep-18 14:21 33.812480 -118.152679 207 64ft 0kts
19-Sep-18 14:22 33.812480 -118.152679 207 64ft 0kts
19-Sep-18 14:23 33.812480 -118.152679 207 64ft 0kts
19-Sep-18 14:24 33.812480 -118.152679 207 64ft 0kts
19-Sep-18 14:25 33.812480 -118.152679 207 64ft 0kts
19-Sep-18 14:26 33.812480 -118.152679 207 64ft 0kts
19-Sep-18 14:27 33.812596 -118.152951 353 64ft 9kts
19-Sep-18 14:28 33.812762 -118.152955 1 64ft 0kts
19-Sep-18 14:29 33.812357 -118.146579 135 64ft 32kts
19-Sep-18 14:30 33.806488 -118.138838 62 64ft 0kts
19-Sep-18 14:31 33.806939 -118.138396 359 64ft 17kts
19-Sep-18 14:32 33.825354 -118.160988 305 807ft 154kts
19-Sep-18 14:33 33.817462 -118.206308 231 2606ft 179kts
19-Sep-18 14:34 33.782128 -118.258543 231 3030ft 227kts
19-Sep-18 14:35 33.740168 -118.318171 231 3026ft 237kts
19-Sep-18 14:36 33.697091 -118.377890 231 3029ft 236kts
19-Sep-18 14:37 33.641180 -118.409864 191 3830ft 221kts
19-Sep-18 14:38 33.585951 -118.404942 117 5340ft 215kts
19-Sep-18 14:39 33.618154 -118.352876 41 6905ft 223kts
19-Sep-18 14:40 33.655817 -118.294834 54 8355ft 230kts
19-Sep-18 14:41 33.690686 -118.230268 55 9848ft 231kts
19-Sep-18 14:42 33.725140 -118.165325 56 11338ft 231kts
19-Sep-18 14:43 33.759508 -118.100316 55 12827ft 232kts
19-Sep-18 14:44 33.807886 -118.072075 337 14386ft 220kts
19-Sep-18 14:45 33.864246 -118.101795 332 15883ft 224kts
19-Sep-18 14:46 33.924790 -118.136428 332 15995ft 262kts
19-Sep-18 14:47 33.991217 -118.174587 332 16001ft 269kts
19-Sep-18 14:48 34.058886 -118.213627 332 16003ft 271kts
19-Sep-18 14:49 34.125304 -118.252026 332 16005ft 272kts
19-Sep-18 14:50 34.193455 -118.291499 332 16006ft 272kts
19-Sep-18 14:51 34.261409 -118.330933 332 16007ft 272kts
19-Sep-18 14:52 34.329540 -118.370540 332 16006ft 272kts
19-Sep-18 14:53 34.397541 -118.410144 332 16004ft 272kts
19-Sep-18 14:54 34.465740 -118.449934 332 16007ft 272kts
19-Sep-18 14:55 34.534029 -118.489850 332 16007ft 273kts
19-Sep-18 14:56 34.602159 -118.529747 332 16009ft 273kts
19-Sep-18 14:57 34.670222 -118.569676 332 16022ft 273kts
19-Sep-18 14:58 34.729802 -118.624795 318 16068ft 270kts
19-Sep-18 14:59 34.785517 -118.681579 317 16127ft 269kts
19-Sep-18 15:00 34.842017 -118.739237 317 16162ft 269kts
19-Sep-18 15:01 34.899897 -118.798431 318 15758ft 283kts
19-Sep-18 15:02 34.962421 -118.857697 342 14251ft 288kts
19-Sep-18 15:03 35.038489 -118.861449 357 14098ft 264kts
19-Sep-18 15:04 35.110836 -118.861521 357 13318ft 279kts
19-Sep-18 15:05 35.187331 -118.861484 358 11384ft 269kts
19-Sep-18 15:06 35.259829 -118.861444 358 8843ft 252kts
19-Sep-18 15:07 35.326576 -118.862834 351 5853ft 234kts
19-Sep-18 15:08 35.361291 -118.919506 288 2865ft 209kts
19-Sep-18 15:09 35.380854 -118.983611 296 2098ft 188kts
19-Sep-18 15:10 35.407653 -119.025024 314 1298ft 134kts
19-Sep-18 15:11 35.429928 -119.051512 313 517ft 89kts
19-Sep-18 15:12 35.435811 -119.056417 138 510ft 21kts

Navigation Log

Ident Type
Flight plan parsing failed, navigation log unavailable